Maersk Missouri — WAHV — position and weather

sailwx.info

Track history (hours):
 
Tides and Currents Weather Stations Pressure Air Temp Water Temp Dewpoint Dewpoint Depression Visibility Wind Speed Wind Dir Waves Ship Positions

Maersk Missouri

Owner: MAERSK LINE, LIMITED, Norfolk, VA. More information available from US FCC via Universal Licensing System and Coast Guard Vessel Documentation Center.

Last reported at 2015-Aug-30 06:00 UTC. Time now 2015-Aug-30 13:56 UTC.
Position N 55°30' W 024°30'.

Type: Cargo ship. MMSI: 369708000.

Wind from 020 at 7 knots

Waves 1.0 meters (3 feet), 3 second period

Barometer 1019.3 mb
Air temperature 11.0 ° C
Visibility: greater than 10.8 NM
Dewpoint 9.0 ° C
Water temperature 11.8 ° C

Date/timePositionNaut miles runAvg speedWind from/ knotsBaromVisibWave heightAir tempDewpointWater temp
2015-Aug-30 06:00N 55°30' W 024°30'11819.6 020 / 71019.310.8 1.011.0 9.011.8
2015-Aug-30 00:00N 56°18' W 021°18'22318.6 340 / 91020.810.8 12.810.112.4
2015-Aug-29 12:00N 57°36' W 014°54'33318.0 280 / 271004.910.8 3.513.811.012.3
2015-Aug-28 17:29N 58°41' W 004°35'1718.4
2015-Aug-28 16:33N 58°43' W 004°03'1919.4
2015-Aug-28 15:33N 58°44' W 003°25'2020.0
2015-Aug-28 14:33N 58°34' W 002°51'5019.5
2015-Aug-28 12:00N 58°00' W 001°42'915.9 160 / 51005.710.8 17.213.013.1
2015-Aug-28 11:27N 57°55' W 001°29'10419.2
2015-Aug-28 06:00N 56°48' E 001°00'10918.2 240 / 201006.010.8 2.014.813.014.7
2015-Aug-28 00:00N 55°42' E 003°36'6518.8 230 / 181010.010.8 16.512.016.0
2015-Aug-27 20:32N 55°08' E 005°14'2418.4
2015-Aug-27 19:12N 54°54' E 005°49'5418.4
2015-Aug-27 16:17N 54°22' E 007°04'1217.0
2015-Aug-27 15:34N 54°15' E 007°20'1918.5
2015-Aug-27 14:33N 53°60' E 007°39'1616.0
2015-Aug-27 13:33N 53°51' E 008°02'2020.4
2015-Aug-27 12:33N 53°38' E 008°28'4 3.7
2015-Aug-27 11:33N 53°35' E 008°32'0 0.0
2015-Aug-27 10:31N 53°35' E 008°32'0 0.0
2015-Aug-27 09:32N 53°35' E 008°32'0 0.0
2015-Aug-27 08:33N 53°35' E 008°32'0 0.0
2015-Aug-27 07:32N 53°35' E 008°32'0 0.0
2015-Aug-27 06:33N 53°35' E 008°32'0 0.0
2015-Aug-27 05:32N 53°35' E 008°32'0 0.0
2015-Aug-27 04:33N 53°35' E 008°32'0 0.0
2015-Aug-27 03:33N 53°35' E 008°32'0 0.0
2015-Aug-27 02:31N 53°35' E 008°32'0 0.0
2015-Aug-27 01:32N 53°35' E 008°32'0 0.0
2015-Aug-27 00:32N 53°35' E 008°32'0 0.0
2015-Aug-26 23:33N 53°35' E 008°32'0 0.0
2015-Aug-26 22:33N 53°35' E 008°32'0 0.0
2015-Aug-26 21:31N 53°35' E 008°32'0 0.0
2015-Aug-26 20:32N 53°35' E 008°32'0 0.0
2015-Aug-26 19:32N 53°35' E 008°32'0 0.0
2015-Aug-26 18:33N 53°35' E 008°32'0 0.0
2015-Aug-26 17:31N 53°35' E 008°32'0 0.0
2015-Aug-26 16:33N 53°35' E 008°32'0 0.0
2015-Aug-26 15:31N 53°35' E 008°32'0 0.0
2015-Aug-26 14:32N 53°35' E 008°32'0 0.0
2015-Aug-26 13:32N 53°35' E 008°32'0 0.0
2015-Aug-26 12:30N 53°35' E 008°32'0 0.0
2015-Aug-26 11:31N 53°35' E 008°32'0 0.0
2015-Aug-26 10:31N 53°35' E 008°32'0 0.0
2015-Aug-26 09:32N 53°35' E 008°32'0 0.0
2015-Aug-26 08:33N 53°35' E 008°32'0 0.0
2015-Aug-26 07:33N 53°35' E 008°32'0 0.1
2015-Aug-26 06:34N 53°35' E 008°32'7 7.3
2015-Aug-26 05:33N 53°40' E 008°23'1313.1
2015-Aug-26 04:33N 53°49' E 008°07'1211.8
2015-Aug-26 03:33N 53°52' E 007°48'9 9.0
2015-Aug-26 02:33N 53°59' E 007°37'7 6.6
2015-Aug-26 01:34N 53°53' E 007°42'1 1.0
2015-Aug-26 00:34N 53°52' E 007°41'7 7.1
2015-Aug-25 23:33N 53°54' E 007°29'1615.7
2015-Aug-25 22:33N 53°52' E 007°03'1615.8
2015-Aug-25 21:34N 53°48' E 006°37'1616.0
2015-Aug-25 20:33N 53°43' E 006°11'1616.3
2015-Aug-25 19:33N 53°37' E 005°45'1616.4
2015-Aug-25 18:33N 53°32' E 005°19'1716.5
2015-Aug-25 17:33N 53°26' E 004°53'1615.6
2015-Aug-25 16:33N 53°14' E 004°36'1616.4
2015-Aug-25 15:33N 53°00' E 004°22'1916.6
2015-Aug-25 14:25N 52°44' E 004°07'1416.7
2015-Aug-25 13:33N 52°31' E 003°56'1616.5
2015-Aug-25 12:33N 52°14' E 003°53'1312.8
2015-Aug-25 11:34N 52°02' E 003°57'6 5.8
2015-Aug-25 10:31N 51°58' E 004°04'0 0.0
2015-Aug-25 09:31N 51°58' E 004°04'0 0.0
2015-Aug-25 08:32N 51°58' E 004°04'0 0.0
2015-Aug-25 07:32N 51°58' E 004°04'0 0.0
2015-Aug-25 06:33N 51°58' E 004°04'0 0.0
2015-Aug-25 05:33N 51°58' E 004°04'0 0.0
2015-Aug-25 04:33N 51°58' E 004°04'0 0.0
2015-Aug-25 03:31N 51°58' E 004°04'0 0.0
2015-Aug-25 02:32N 51°58' E 004°04'0 0.0
2015-Aug-25 01:33N 51°58' E 004°04'0 0.0
2015-Aug-25 00:33N 51°58' E 004°04'0 0.0
2015-Aug-24 23:31N 51°58' E 004°04'0 0.0
2015-Aug-24 22:32N 51°58' E 004°04'0 0.0
2015-Aug-24 21:32N 51°58' E 004°04'2 1.8
2015-Aug-24 20:33N 51°59' E 004°03'1212.1
2015-Aug-24 19:33N 51°58' E 003°43'2119.9
2015-Aug-24 18:30N 51°46' E 003°15'1314.2
2015-Aug-24 17:34N 51°34' E 003°08'10 9.7
2015-Aug-24 16:34N 51°24' E 003°12'1515.2
2015-Aug-24 15:34N 51°26' E 003°37'1211.8
2015-Aug-24 14:34N 51°22' E 003°54'1110.6
2015-Aug-24 13:34N 51°24' E 004°11'5 4.9
2015-Aug-24 12:32N 51°21' E 004°17'0 0.5
2015-Aug-24 11:33N 51°21' E 004°18'2 1.4
2015-Aug-24 10:27N 51°19' E 004°20'0 0.0
2015-Aug-24 09:31N 51°19' E 004°20'0 0.0
2015-Aug-24 08:28N 51°19' E 004°20'0 0.0
2015-Aug-24 07:32N 51°19' E 004°20'0 0.0
2015-Aug-24 06:32N 51°19' E 004°20'0 0.0
2015-Aug-24 05:33N 51°19' E 004°20'0 0.0
2015-Aug-24 04:27N 51°19' E 004°20'0 0.0
2015-Aug-24 03:31N 51°19' E 004°20'0 0.0
2015-Aug-24 02:31N 51°19' E 004°20'0 0.0
2015-Aug-24 01:32N 51°19' E 004°20'0 0.0
2015-Aug-24 00:32N 51°19' E 004°20'0 0.0
2015-Aug-23 23:32N 51°19' E 004°20'0 0.0
2015-Aug-23 22:33N 51°19' E 004°20'0 0.0
2015-Aug-23 21:33N 51°19' E 004°20'0 0.0
2015-Aug-23 20:31N 51°19' E 004°20'0 0.0
2015-Aug-23 19:32N 51°19' E 004°20'0 0.0
2015-Aug-23 18:17N 51°19' E 004°20'0 0.0
2015-Aug-23 17:33N 51°19' E 004°20'0 0.0
2015-Aug-23 16:30N 51°19' E 004°20'0 0.0
2015-Aug-23 15:28N 51°19' E 004°20'0 0.0
2015-Aug-23 14:25N 51°19' E 004°20'0 0.0
2015-Aug-23 13:32N 51°19' E 004°20'0 0.0
2015-Aug-23 12:32N 51°19' E 004°20'0 0.0
2015-Aug-23 11:33N 51°19' E 004°20'0 0.0
2015-Aug-23 10:33N 51°19' E 004°20'0 0.0
2015-Aug-23 09:28N 51°19' E 004°20'0 0.0
2015-Aug-23 08:28N 51°19' E 004°20'0 0.0
2015-Aug-23 07:32N 51°19' E 004°20'0 0.0
2015-Aug-23 06:32N 51°19' E 004°20'0 0.0
2015-Aug-23 05:32N 51°19' E 004°20'0 0.2
2015-Aug-23 04:33N 51°20' E 004°19'2 1.7
2015-Aug-23 03:33N 51°21' E 004°17'0 0.5
2015-Aug-23 02:33N 51°21' E 004°16'10 9.9
2015-Aug-23 01:33N 51°25' E 004°02'10 9.9
2015-Aug-23 00:33N 51°21' E 003°47'10 9.6
2015-Aug-22 23:33N 51°26' E 003°33'1211.5
2015-Aug-22 22:33N 51°25' E 003°15'1212.3
2015-Aug-22 21:34N 51°25' E 002°55'1212.1
2015-Aug-22 20:33N 51°22' E 002°36'1 0.9
2015-Aug-22 19:34N 51°22' E 002°35'5 5.1
2015-Aug-22 18:34N 51°21' E 002°27'1010.4
2015-Aug-22 17:33N 51°17' E 002°12'1616.0
2015-Aug-22 16:33N 51°09' E 001°50'1716.5
2015-Aug-22 15:33N 50°57' E 001°32'1615.8
2015-Aug-22 14:33N 50°42' E 001°22'1915.4
2015-Aug-22 13:21N 50°30' E 000°60'5915.1
2015-Aug-22 09:27N 50°09' W 000°27'1213.6
2015-Aug-22 08:33N 50°04' W 000°44'1312.9
2015-Aug-22 07:33N 49°60' W 001°03'1312.5
2015-Aug-22 06:33N 49°53' W 001°19'1111.0
2015-Aug-22 05:33N 49°48' W 001°34'1010.0
2015-Aug-22 04:33N 49°44' W 001°49'1312.1
2015-Aug-22 03:32N 49°49' W 002°06'4614.3
2015-Aug-22 00:20N 49°46' W 003°17'4615.0
2015-Aug-21 21:17N 49°43' W 004°28'13414.4
2015-Aug-21 12:00N 49°36' W 007°54'8914.9 230 / 71015.710.8 0.518.815.016.6
2015-Aug-21 06:00N 49°36' W 010°12'26714.8 230 / 61013.010.8 0.517.015.016.2
2015-Aug-20 12:00N 49°12' W 017°00'10417.3 230 / 201010.2 2.2 3.516.716.015.0
2015-Aug-20 06:00N 48°54' W 019°36'   220 / 221008.8 5.4 2.016.816.016.4
Track history (hours):
 
Tides and Currents Weather Stations Pressure Air Temp Water Temp Dewpoint Dewpoint Depression Visibility Wind Speed Wind Dir Waves Ship Positions

Maersk Missouri

Owner: MAERSK LINE, LIMITED, Norfolk, VA. More information available from US FCC via Universal Licensing System and Coast Guard Vessel Documentation Center.

Last reported at 2015-Aug-30 06:00 UTC. Time now 2015-Aug-30 13:56 UTC.
Position N 55°30' W 024°30'.

Type: Cargo ship. MMSI: 369708000.

Wind from 020 at 7 knots

Waves 1.0 meters (3 feet), 3 second period

Barometer 1019.3 mb
Air temperature 11.0 ° C
Visibility: greater than 10.8 NM
Dewpoint 9.0 ° C
Water temperature 11.8 ° C

Date/timePositionNaut miles runAvg speedWind from/ knotsBaromVisibWave heightAir tempDewpointWater temp
2015-Aug-30 06:00N 55°30' W 024°30'11819.6 020 / 71019.310.8 1.011.0 9.011.8
2015-Aug-30 00:00N 56°18' W 021°18'22318.6 340 / 91020.810.8 12.810.112.4
2015-Aug-29 12:00N 57°36' W 014°54'33318.0 280 / 271004.910.8 3.513.811.012.3
2015-Aug-28 17:29N 58°41' W 004°35'1718.4
2015-Aug-28 16:33N 58°43' W 004°03'1919.4
2015-Aug-28 15:33N 58°44' W 003°25'2020.0
2015-Aug-28 14:33N 58°34' W 002°51'5019.5
2015-Aug-28 12:00N 58°00' W 001°42'915.9 160 / 51005.710.8 17.213.013.1
2015-Aug-28 11:27N 57°55' W 001°29'10419.2
2015-Aug-28 06:00N 56°48' E 001°00'10918.2 240 / 201006.010.8 2.014.813.014.7
2015-Aug-28 00:00N 55°42' E 003°36'6518.8 230 / 181010.010.8 16.512.016.0
2015-Aug-27 20:32N 55°08' E 005°14'2418.4
2015-Aug-27 19:12N 54°54' E 005°49'5418.4
2015-Aug-27 16:17N 54°22' E 007°04'1217.0
2015-Aug-27 15:34N 54°15' E 007°20'1918.5
2015-Aug-27 14:33N 53°60' E 007°39'1616.0
2015-Aug-27 13:33N 53°51' E 008°02'2020.4
2015-Aug-27 12:33N 53°38' E 008°28'4 3.7
2015-Aug-27 11:33N 53°35' E 008°32'0 0.0
2015-Aug-27 10:31N 53°35' E 008°32'0 0.0
2015-Aug-27 09:32N 53°35' E 008°32'0 0.0
2015-Aug-27 08:33N 53°35' E 008°32'0 0.0
2015-Aug-27 07:32N 53°35' E 008°32'0 0.0
2015-Aug-27 06:33N 53°35' E 008°32'0 0.0
2015-Aug-27 05:32N 53°35' E 008°32'0 0.0
2015-Aug-27 04:33N 53°35' E 008°32'0 0.0
2015-Aug-27 03:33N 53°35' E 008°32'0 0.0
2015-Aug-27 02:31N 53°35' E 008°32'0 0.0
2015-Aug-27 01:32N 53°35' E 008°32'0 0.0
2015-Aug-27 00:32N 53°35' E 008°32'0 0.0
2015-Aug-26 23:33N 53°35' E 008°32'0 0.0
2015-Aug-26 22:33N 53°35' E 008°32'0 0.0
2015-Aug-26 21:31N 53°35' E 008°32'0 0.0
2015-Aug-26 20:32N 53°35' E 008°32'0 0.0
2015-Aug-26 19:32N 53°35' E 008°32'0 0.0
2015-Aug-26 18:33N 53°35' E 008°32'0 0.0
2015-Aug-26 17:31N 53°35' E 008°32'0 0.0
2015-Aug-26 16:33N 53°35' E 008°32'0 0.0
2015-Aug-26 15:31N 53°35' E 008°32'0 0.0
2015-Aug-26 14:32N 53°35' E 008°32'0 0.0
2015-Aug-26 13:32N 53°35' E 008°32'0 0.0
2015-Aug-26 12:30N 53°35' E 008°32'0 0.0
2015-Aug-26 11:31N 53°35' E 008°32'0 0.0
2015-Aug-26 10:31N 53°35' E 008°32'0 0.0
2015-Aug-26 09:32N 53°35' E 008°32'0 0.0
2015-Aug-26 08:33N 53°35' E 008°32'0 0.0
2015-Aug-26 07:33N 53°35' E 008°32'0 0.1
2015-Aug-26 06:34N 53°35' E 008°32'7 7.3
2015-Aug-26 05:33N 53°40' E 008°23'1313.1
2015-Aug-26 04:33N 53°49' E 008°07'1211.8
2015-Aug-26 03:33N 53°52' E 007°48'9 9.0
2015-Aug-26 02:33N 53°59' E 007°37'7 6.6
2015-Aug-26 01:34N 53°53' E 007°42'1 1.0
2015-Aug-26 00:34N 53°52' E 007°41'7 7.1
2015-Aug-25 23:33N 53°54' E 007°29'1615.7
2015-Aug-25 22:33N 53°52' E 007°03'1615.8
2015-Aug-25 21:34N 53°48' E 006°37'1616.0
2015-Aug-25 20:33N 53°43' E 006°11'1616.3
2015-Aug-25 19:33N 53°37' E 005°45'1616.4
2015-Aug-25 18:33N 53°32' E 005°19'1716.5
2015-Aug-25 17:33N 53°26' E 004°53'1615.6
2015-Aug-25 16:33N 53°14' E 004°36'1616.4
2015-Aug-25 15:33N 53°00' E 004°22'1916.6
2015-Aug-25 14:25N 52°44' E 004°07'1416.7
2015-Aug-25 13:33N 52°31' E 003°56'1616.5
2015-Aug-25 12:33N 52°14' E 003°53'1312.8
2015-Aug-25 11:34N 52°02' E 003°57'6 5.8
2015-Aug-25 10:31N 51°58' E 004°04'0 0.0
2015-Aug-25 09:31N 51°58' E 004°04'0 0.0
2015-Aug-25 08:32N 51°58' E 004°04'0 0.0
2015-Aug-25 07:32N 51°58' E 004°04'0 0.0
2015-Aug-25 06:33N 51°58' E 004°04'0 0.0
2015-Aug-25 05:33N 51°58' E 004°04'0 0.0
2015-Aug-25 04:33N 51°58' E 004°04'0 0.0
2015-Aug-25 03:31N 51°58' E 004°04'0 0.0
2015-Aug-25 02:32N 51°58' E 004°04'0 0.0
2015-Aug-25 01:33N 51°58' E 004°04'0 0.0
2015-Aug-25 00:33N 51°58' E 004°04'0 0.0
2015-Aug-24 23:31N 51°58' E 004°04'0 0.0
2015-Aug-24 22:32N 51°58' E 004°04'0 0.0
2015-Aug-24 21:32N 51°58' E 004°04'2 1.8
2015-Aug-24 20:33N 51°59' E 004°03'1212.1
2015-Aug-24 19:33N 51°58' E 003°43'2119.9
2015-Aug-24 18:30N 51°46' E 003°15'1314.2
2015-Aug-24 17:34N 51°34' E 003°08'10 9.7
2015-Aug-24 16:34N 51°24' E 003°12'1515.2
2015-Aug-24 15:34N 51°26' E 003°37'1211.8
2015-Aug-24 14:34N 51°22' E 003°54'1110.6
2015-Aug-24 13:34N 51°24' E 004°11'5 4.9
2015-Aug-24 12:32N 51°21' E 004°17'0 0.5
2015-Aug-24 11:33N 51°21' E 004°18'2 1.4
2015-Aug-24 10:27N 51°19' E 004°20'0 0.0
2015-Aug-24 09:31N 51°19' E 004°20'0 0.0
2015-Aug-24 08:28N 51°19' E 004°20'0 0.0
2015-Aug-24 07:32N 51°19' E 004°20'0 0.0
2015-Aug-24 06:32N 51°19' E 004°20'0 0.0
2015-Aug-24 05:33N 51°19' E 004°20'0 0.0
2015-Aug-24 04:27N 51°19' E 004°20'0 0.0
2015-Aug-24 03:31N 51°19' E 004°20'0 0.0
2015-Aug-24 02:31N 51°19' E 004°20'0 0.0
2015-Aug-24 01:32N 51°19' E 004°20'0 0.0
2015-Aug-24 00:32N 51°19' E 004°20'0 0.0
2015-Aug-23 23:32N 51°19' E 004°20'0 0.0
2015-Aug-23 22:33N 51°19' E 004°20'0 0.0
2015-Aug-23 21:33N 51°19' E 004°20'0 0.0
2015-Aug-23 20:31N 51°19' E 004°20'0 0.0
2015-Aug-23 19:32N 51°19' E 004°20'0 0.0
2015-Aug-23 18:17N 51°19' E 004°20'0 0.0
2015-Aug-23 17:33N 51°19' E 004°20'0 0.0
2015-Aug-23 16:30N 51°19' E 004°20'0 0.0
2015-Aug-23 15:28N 51°19' E 004°20'0 0.0
2015-Aug-23 14:25N 51°19' E 004°20'0 0.0
2015-Aug-23 13:32N 51°19' E 004°20'0 0.0
2015-Aug-23 12:32N 51°19' E 004°20'0 0.0
2015-Aug-23 11:33N 51°19' E 004°20'0 0.0
2015-Aug-23 10:33N 51°19' E 004°20'0 0.0
2015-Aug-23 09:28N 51°19' E 004°20'0 0.0
2015-Aug-23 08:28N 51°19' E 004°20'0 0.0
2015-Aug-23 07:32N 51°19' E 004°20'0 0.0
2015-Aug-23 06:32N 51°19' E 004°20'0 0.0
2015-Aug-23 05:32N 51°19' E 004°20'0 0.2
2015-Aug-23 04:33N 51°20' E 004°19'2 1.7
2015-Aug-23 03:33N 51°21' E 004°17'0 0.5
2015-Aug-23 02:33N 51°21' E 004°16'10 9.9
2015-Aug-23 01:33N 51°25' E 004°02'10 9.9
2015-Aug-23 00:33N 51°21' E 003°47'10 9.6
2015-Aug-22 23:33N 51°26' E 003°33'1211.5
2015-Aug-22 22:33N 51°25' E 003°15'1212.3
2015-Aug-22 21:34N 51°25' E 002°55'1212.1
2015-Aug-22 20:33N 51°22' E 002°36'1 0.9
2015-Aug-22 19:34N 51°22' E 002°35'5 5.1
2015-Aug-22 18:34N 51°21' E 002°27'1010.4
2015-Aug-22 17:33N 51°17' E 002°12'1616.0
2015-Aug-22 16:33N 51°09' E 001°50'1716.5
2015-Aug-22 15:33N 50°57' E 001°32'1615.8
2015-Aug-22 14:33N 50°42' E 001°22'1915.4
2015-Aug-22 13:21N 50°30' E 000°60'5915.1
2015-Aug-22 09:27N 50°09' W 000°27'1213.6
2015-Aug-22 08:33N 50°04' W 000°44'1312.9
2015-Aug-22 07:33N 49°60' W 001°03'1312.5
2015-Aug-22 06:33N 49°53' W 001°19'1111.0
2015-Aug-22 05:33N 49°48' W 001°34'1010.0
2015-Aug-22 04:33N 49°44' W 001°49'1312.1
2015-Aug-22 03:32N 49°49' W 002°06'4614.3
2015-Aug-22 00:20N 49°46' W 003°17'4615.0
2015-Aug-21 21:17N 49°43' W 004°28'13414.4
2015-Aug-21 12:00N 49°36' W 007°54'8914.9 230 / 71015.710.8 0.518.815.016.6
2015-Aug-21 06:00N 49°36' W 010°12'26714.8 230 / 61013.010.8 0.517.015.016.2
2015-Aug-20 12:00N 49°12' W 017°00'10417.3 230 / 201010.2 2.2 3.516.716.015.0
2015-Aug-20 06:00N 48°54' W 019°36'   220 / 221008.8 5.4 2.016.816.016.4

Dump ship's entire track history